createdAt,value
2023-02-24T00:02:03.684Z,5.20
2023-02-24T00:04:33.501Z,5.40
2023-02-24T00:07:00.720Z,5.20
2023-02-24T00:09:28.138Z,5.30
2023-02-24T00:11:55.884Z,5.50
2023-02-24T00:14:24.062Z,5.10
2023-02-24T00:16:52.710Z,5.60
2023-02-24T00:19:23.008Z,5.40
2023-02-24T00:21:50.970Z,5.70
2023-02-24T00:24:17.582Z,5.30
2023-02-24T00:26:45.255Z,5.50
2023-02-24T00:29:12.825Z,5.90
2023-02-24T00:31:41.402Z,5.40
2023-02-24T00:34:08.470Z,5.40
2023-02-24T00:36:35.440Z,5.20
2023-02-24T00:39:13.031Z,5.10
2023-02-24T00:41:41.671Z,5.50
2023-02-24T00:44:12.371Z,5.30
2023-02-24T00:46:41.905Z,5.80
2023-02-24T00:49:12.065Z,5.40
2023-02-24T00:51:40.741Z,5.70
2023-02-24T00:54:07.768Z,5.70
2023-02-24T00:56:34.620Z,5.50
2023-02-24T00:59:05.666Z,5.80
2023-02-24T01:01:32.914Z,5.60
2023-02-24T01:04:10.789Z,5.50
2023-02-24T01:06:40.161Z,5.60
2023-02-24T01:09:15.909Z,5.70
2023-02-24T01:12:03.612Z,5.70
2023-02-24T01:14:32.791Z,5.50
2023-02-24T01:16:59.760Z,5.60
2023-02-24T01:19:31.549Z,5.50
2023-02-24T01:22:03.778Z,5.50
2023-02-24T01:24:33.790Z,5.30
2023-02-24T01:27:00.393Z,5.40
2023-02-24T01:29:30.298Z,5.40
2023-02-24T01:31:57.990Z,5.50
2023-02-24T01:34:26.110Z,5.80
2023-02-24T01:36:52.893Z,5.50
2023-02-24T01:39:20.067Z,5.50
2023-02-24T01:41:49.470Z,5.50
2023-02-24T01:44:21.777Z,5.10
2023-02-24T01:46:50.566Z,4.90
2023-02-24T01:49:33.487Z,5.70
2023-02-24T01:52:06.071Z,5.50
2023-02-24T01:54:42.311Z,5.30
2023-02-24T01:57:15.928Z,5.40
2023-02-24T01:59:43.873Z,5.40
2023-02-24T02:02:10.762Z,5.20
2023-02-24T02:04:44.645Z,5.10
2023-02-24T02:07:16.145Z,5.00
2023-02-24T02:09:43.619Z,5.70
2023-02-24T02:12:10.272Z,5.00
2023-02-24T02:14:39.237Z,5.00
2023-02-24T02:17:26.863Z,5.40
2023-02-24T02:20:15.132Z,4.90
2023-02-24T02:23:32.952Z,4.80
2023-02-24T02:26:21.151Z,5.10
2023-02-24T02:29:01.156Z,5.10
2023-02-24T02:32:03.212Z,5.10
2023-02-24T02:34:36.339Z,5.20
2023-02-24T02:37:08.097Z,5.10
2023-02-24T02:39:42.643Z,5.70
2023-02-24T02:42:18.155Z,4.70
2023-02-24T02:45:13.865Z,5.10
2023-02-24T02:47:59.035Z,5.10
2023-02-24T02:50:38.192Z,5.00
2023-02-24T02:53:12.872Z,5.30
2023-02-24T02:55:41.278Z,5.50
2023-02-24T02:58:14.190Z,4.90
2023-02-24T03:00:57.438Z,5.30
2023-02-24T03:03:25.896Z,5.20
2023-02-24T03:05:56.315Z,5.00
2023-02-24T03:08:25.285Z,4.90
2023-02-24T03:10:52.771Z,4.80
2023-02-24T03:13:25.123Z,5.00
2023-02-24T03:15:53.007Z,5.20
2023-02-24T03:18:31.386Z,4.80
2023-02-24T03:21:11.133Z,4.90
2023-02-24T03:23:44.732Z,5.00
2023-02-24T03:26:31.692Z,4.80
2023-02-24T03:29:04.032Z,4.90
2023-02-24T03:31:54.858Z,5.20
2023-02-24T03:34:28.465Z,5.00
2023-02-24T03:36:55.708Z,4.90
2023-02-24T03:39:23.069Z,5.10
2023-02-24T03:42:03.698Z,5.10
2023-02-24T03:44:32.008Z,5.20
2023-02-24T03:47:03.745Z,5.20
2023-02-24T03:49:32.063Z,4.90
2023-02-24T03:52:10.438Z,4.90
2023-02-24T03:55:10.200Z,4.80
2023-02-24T03:57:54.191Z,4.60
2023-02-24T04:03:24.980Z,4.80
2023-02-24T04:06:15.445Z,5.10
2023-02-24T04:08:52.549Z,5.10
2023-02-24T04:11:24.524Z,4.70
2023-02-24T04:13:54.983Z,4.60
2023-02-24T04:16:47.980Z,4.90
2023-02-24T04:19:17.806Z,4.70
2023-02-24T04:21:45.344Z,5.00
2023-02-24T04:24:21.631Z,4.70
2023-02-24T04:26:48.965Z,4.60
2023-02-24T04:29:20.403Z,4.70
2023-02-24T04:31:48.212Z,4.90
2023-02-24T04:34:19.354Z,5.00
2023-02-24T04:36:49.943Z,4.90
2023-02-24T04:39:18.331Z,5.00
2023-02-24T04:41:48.672Z,5.10
2023-02-24T04:44:20.378Z,4.80
2023-02-24T04:46:49.196Z,4.90
2023-02-24T04:49:17.410Z,4.90
2023-02-24T04:51:44.385Z,5.40
2023-02-24T04:54:16.575Z,4.80
2023-02-24T04:56:50.131Z,4.80
2023-02-24T04:59:18.215Z,5.00
2023-02-24T05:01:45.099Z,4.60
2023-02-24T05:04:13.359Z,4.90
2023-02-24T05:06:43.231Z,4.70
2023-02-24T05:09:13.651Z,4.80
2023-02-24T05:11:41.926Z,5.00
2023-02-24T05:14:15.558Z,5.40
2023-02-24T05:16:43.075Z,4.60
2023-02-24T05:19:29.371Z,5.20
2023-02-24T05:21:58.876Z,4.40
2023-02-24T05:24:28.383Z,4.70
2023-02-24T05:26:58.683Z,4.50
2023-02-24T05:29:27.694Z,4.90
2023-02-24T05:31:59.061Z,4.70
2023-02-24T05:34:30.204Z,4.90
2023-02-24T05:36:57.739Z,4.80
2023-02-24T05:39:27.681Z,5.00
2023-02-24T05:41:56.425Z,5.00
2023-02-24T05:44:25.429Z,4.80
2023-02-24T05:46:59.019Z,4.90
2023-02-24T05:49:32.399Z,4.90
2023-02-24T05:52:01.238Z,5.00
2023-02-24T05:54:30.204Z,5.10
2023-02-24T05:57:01.489Z,4.90
2023-02-24T05:59:38.074Z,5.10
2023-02-24T06:02:06.368Z,5.00
2023-02-24T06:04:39.142Z,5.20
2023-02-24T06:07:12.991Z,5.40
2023-02-24T06:09:44.250Z,4.90
2023-02-24T06:12:13.803Z,5.00
2023-02-24T06:14:40.315Z,4.80
2023-02-24T06:17:09.443Z,5.00
2023-02-24T06:19:36.642Z,4.70
2023-02-24T06:22:10.216Z,5.20
2023-02-24T06:24:37.055Z,5.20
2023-02-24T06:27:09.025Z,4.90
2023-02-24T06:29:39.235Z,5.40
2023-02-24T06:32:09.030Z,5.00
2023-02-24T06:34:39.123Z,5.00
2023-02-24T06:37:06.693Z,5.30
2023-02-24T06:39:36.498Z,5.00
2023-02-24T06:42:04.582Z,4.80
2023-02-24T06:44:31.987Z,5.30
2023-02-24T06:46:59.483Z,5.00
2023-02-24T06:49:26.844Z,5.10
2023-02-24T06:51:54.313Z,5.60
2023-02-24T06:54:34.136Z,4.60
2023-02-24T06:57:02.615Z,4.90
2023-02-24T06:59:29.445Z,5.30
2023-02-24T07:01:58.014Z,5.00
2023-02-24T07:04:28.709Z,5.60
2023-02-24T07:07:02.243Z,5.50
2023-02-24T07:09:35.022Z,5.30
2023-02-24T07:12:03.611Z,5.40
2023-02-24T07:14:31.062Z,5.30
2023-02-24T07:16:59.649Z,5.10
2023-02-24T07:19:28.607Z,5.00
2023-02-24T07:22:02.712Z,5.20
2023-02-24T07:24:35.675Z,5.10
2023-02-24T07:27:04.630Z,5.30
2023-02-24T07:29:32.050Z,5.10
2023-02-24T07:32:02.650Z,5.40
2023-02-24T07:34:30.080Z,5.00
2023-02-24T07:36:57.029Z,5.30
2023-02-24T07:39:24.062Z,5.10
2023-02-24T07:41:54.596Z,5.00
2023-02-24T07:44:23.625Z,5.20
2023-02-24T07:46:51.071Z,5.10
2023-02-24T07:49:25.184Z,5.20
2023-02-24T07:51:52.430Z,5.30
2023-02-24T07:54:20.587Z,5.70
2023-02-24T07:56:55.657Z,5.10
2023-02-24T07:59:24.547Z,5.40
2023-02-24T08:01:54.667Z,5.40
2023-02-24T08:04:27.951Z,5.60
2023-02-24T08:07:01.833Z,5.40
2023-02-24T08:09:46.298Z,5.60
2023-02-24T08:12:17.227Z,5.10
2023-02-24T08:14:51.540Z,5.60
2023-02-24T08:17:22.701Z,5.40
2023-02-24T08:20:00.306Z,5.50
2023-02-24T08:22:34.728Z,5.40
2023-02-24T08:25:06.669Z,5.70
2023-02-24T08:27:38.353Z,5.20
2023-02-24T08:30:07.007Z,5.20
2023-02-24T08:32:44.223Z,5.50
2023-02-24T08:35:15.720Z,5.40
2023-02-24T08:37:48.512Z,5.20
2023-02-24T08:40:32.348Z,5.70
2023-02-24T08:43:15.850Z,5.50
2023-02-24T08:45:52.371Z,5.10
2023-02-24T08:48:31.648Z,5.30
2023-02-24T08:51:01.143Z,5.30
2023-02-24T08:53:30.821Z,5.50
2023-02-24T08:56:08.866Z,5.60
2023-02-24T08:58:48.566Z,5.00
2023-02-24T09:01:23.140Z,5.60
2023-02-24T09:03:55.700Z,5.80
2023-02-24T09:06:45.790Z,5.30
2023-02-24T09:09:17.554Z,5.60
2023-02-24T09:11:49.182Z,5.90
2023-02-24T09:14:26.589Z,5.70
2023-02-24T09:17:10.533Z,6.00
2023-02-24T09:19:40.474Z,5.50
2023-02-24T09:22:29.070Z,5.50
2023-02-24T09:25:16.976Z,5.50
2023-02-24T09:27:55.283Z,5.60
2023-02-24T09:30:37.768Z,5.40
2023-02-24T09:33:17.012Z,5.30
2023-02-24T09:35:46.890Z,5.50
2023-02-24T09:38:16.178Z,5.20
2023-02-24T09:40:53.326Z,5.60
2023-02-24T09:43:23.785Z,5.30
2023-02-24T09:45:57.608Z,6.00
2023-02-24T09:48:30.180Z,5.80
2023-02-24T09:51:05.035Z,6.10
2023-02-24T09:53:48.534Z,6.40
2023-02-24T09:56:36.380Z,5.70
2023-02-24T09:59:12.865Z,6.00
2023-02-24T10:01:56.475Z,5.50
2023-02-24T10:04:35.601Z,6.20
2023-02-24T10:07:06.675Z,5.80
2023-02-24T10:09:35.148Z,5.60
2023-02-24T10:12:05.551Z,5.80
2023-02-24T10:15:18.382Z,6.10
2023-02-24T10:17:56.200Z,6.30
2023-02-24T10:20:30.347Z,6.20
2023-02-24T10:23:04.716Z,6.20
2023-02-24T10:25:53.045Z,5.60
2023-02-24T10:28:22.985Z,5.60
2023-02-24T10:31:03.398Z,5.70
2023-02-24T10:33:44.516Z,6.20
2023-02-24T10:36:17.197Z,6.00
2023-02-24T10:38:50.075Z,5.80
2023-02-24T10:41:16.777Z,5.90
2023-02-24T10:43:55.324Z,5.80
2023-02-24T10:46:41.025Z,5.60
2023-02-24T10:49:11.182Z,6.00
2023-02-24T10:51:44.489Z,5.60
2023-02-24T10:55:04.260Z,5.80
2023-02-24T10:57:58.633Z,5.90
2023-02-24T11:00:50.221Z,5.70
2023-02-24T11:03:35.209Z,5.90
2023-02-24T11:06:02.856Z,5.90
2023-02-24T11:08:47.879Z,5.80
2023-02-24T11:11:30.478Z,6.20
2023-02-24T11:14:17.608Z,6.10
2023-02-24T11:17:07.338Z,6.00
2023-02-24T11:20:10.246Z,6.10
2023-02-24T11:22:41.243Z,6.10
2023-02-24T11:25:22.507Z,6.00
2023-02-24T11:27:49.113Z,6.40
2023-02-24T11:30:36.228Z,6.20
2023-02-24T11:33:29.108Z,5.80
2023-02-24T11:36:09.108Z,6.00
2023-02-24T11:38:39.745Z,6.00
2023-02-24T11:41:16.596Z,6.10
2023-02-24T11:43:44.967Z,5.90
2023-02-24T11:46:14.554Z,5.70
2023-02-24T11:48:45.335Z,5.80
2023-02-24T11:51:20.601Z,6.00
2023-02-24T11:53:52.582Z,6.10
2023-02-24T11:59:22.442Z,5.90
2023-02-24T12:01:56.057Z,5.60
2023-02-24T12:04:29.473Z,5.90
2023-02-24T12:07:01.285Z,6.20
2023-02-24T12:09:37.213Z,5.90
2023-02-24T12:12:27.495Z,6.00
2023-02-24T12:15:01.166Z,5.50
2023-02-24T12:17:38.958Z,6.20
2023-02-24T12:20:21.120Z,5.60
2023-02-24T12:22:52.365Z,5.90
2023-02-24T12:25:23.975Z,5.80
2023-02-24T12:28:13.984Z,5.40
2023-02-24T12:30:57.816Z,6.20
2023-02-24T12:33:28.043Z,6.30
2023-02-24T12:36:06.426Z,5.90
2023-02-24T12:38:34.799Z,5.50
2023-02-24T12:41:24.380Z,5.40
2023-02-24T12:43:56.684Z,6.00
2023-02-24T12:46:28.811Z,5.40
2023-02-24T12:49:22.377Z,5.70
2023-02-24T12:52:15.750Z,6.10
2023-02-24T12:55:16.797Z,6.10
2023-02-24T12:57:50.551Z,6.00
2023-02-24T13:00:25.542Z,5.70
2023-02-24T13:03:15.075Z,5.80
2023-02-24T13:05:57.724Z,5.70
2023-02-24T13:08:35.519Z,6.10
2023-02-24T13:11:22.753Z,6.50
2023-02-24T13:14:00.175Z,5.70
2023-02-24T13:16:33.094Z,6.00
2023-02-24T13:19:05.657Z,5.90
2023-02-24T13:21:34.376Z,6.40
2023-02-24T13:24:02.766Z,6.10
2023-02-24T13:26:31.991Z,6.40
2023-02-24T13:29:09.278Z,5.70
2023-02-24T13:31:41.394Z,6.40
2023-02-24T13:34:21.932Z,5.80
2023-02-24T13:36:50.455Z,5.60
2023-02-24T13:39:22.822Z,6.30
2023-02-24T13:41:50.906Z,5.80
2023-02-24T13:44:18.866Z,5.80
2023-02-24T13:46:53.363Z,5.50
2023-02-24T13:49:31.485Z,6.50
2023-02-24T13:52:15.880Z,6.70
2023-02-24T13:55:09.058Z,6.10
2023-02-24T13:58:02.296Z,6.10
2023-02-24T14:00:51.037Z,6.10
2023-02-24T14:03:21.512Z,6.10
2023-02-24T14:05:49.550Z,6.50
2023-02-24T14:08:40.598Z,6.40
2023-02-24T14:11:11.749Z,6.40
2023-02-24T14:13:40.029Z,6.10
2023-02-24T14:16:11.837Z,6.50
2023-02-24T14:18:41.839Z,5.70
2023-02-24T14:21:20.662Z,5.90
2023-02-24T14:24:01.186Z,5.20
2023-02-24T14:26:32.340Z,6.50
2023-02-24T14:29:00.848Z,6.10
2023-02-24T14:31:30.358Z,6.60
2023-02-24T14:34:03.603Z,6.30
2023-02-24T14:36:33.927Z,6.60
2023-02-24T14:39:24.579Z,6.50
2023-02-24T14:42:04.785Z,6.70
2023-02-24T14:44:33.616Z,6.50
2023-02-24T14:47:08.033Z,6.50
2023-02-24T14:49:37.043Z,6.40
2023-02-24T14:52:08.494Z,6.10
2023-02-24T14:54:44.934Z,6.00
2023-02-24T14:57:15.950Z,6.40
2023-02-24T14:59:46.224Z,5.90
2023-02-24T15:02:19.738Z,5.90
2023-02-24T15:04:47.867Z,6.20
2023-02-24T15:07:22.166Z,6.10
2023-02-24T15:09:50.752Z,5.80
2023-02-24T15:12:44.336Z,6.30
2023-02-24T15:15:22.412Z,6.30
2023-02-24T15:18:00.252Z,6.30
2023-02-24T15:20:33.919Z,6.80
2023-02-24T15:23:09.254Z,6.20
2023-02-24T15:25:45.714Z,6.00
2023-02-24T15:31:10.560Z,6.50
2023-02-24T15:33:44.414Z,6.10
2023-02-24T15:36:18.233Z,5.80
2023-02-24T15:38:46.961Z,6.10
2023-02-24T15:41:15.756Z,6.10
2023-02-24T15:43:45.643Z,6.40
2023-02-24T15:46:25.143Z,6.30
2023-02-24T15:48:54.630Z,6.50
2023-02-24T15:51:31.876Z,6.20
2023-02-24T15:54:01.627Z,6.30
2023-02-24T15:56:29.798Z,6.60
2023-02-24T15:59:02.719Z,6.30
2023-02-24T16:01:33.115Z,6.10
2023-02-24T16:04:01.613Z,6.50
2023-02-24T16:06:36.122Z,6.70
2023-02-24T16:09:05.413Z,5.90
2023-02-24T16:11:35.308Z,6.40
2023-02-24T16:14:03.649Z,6.50
2023-02-24T16:16:33.581Z,6.50
2023-02-24T16:19:04.434Z,6.40
2023-02-24T16:21:33.793Z,6.40
2023-02-24T16:24:02.038Z,6.70
2023-02-24T16:26:30.351Z,6.60
2023-02-24T16:28:59.274Z,6.40
2023-02-24T16:31:28.077Z,6.40
2023-02-24T16:33:58.481Z,5.70
2023-02-24T16:36:28.329Z,6.10
2023-02-24T16:38:57.277Z,7.00
2023-02-24T16:41:25.158Z,6.20
2023-02-24T16:43:53.461Z,6.60
2023-02-24T16:46:25.292Z,6.40
2023-02-24T16:48:54.514Z,5.90
2023-02-24T16:51:22.490Z,6.10
2023-02-24T16:53:54.763Z,6.10
2023-02-24T16:56:23.080Z,6.10
2023-02-24T16:58:51.250Z,6.10
2023-02-24T17:01:20.902Z,5.80
2023-02-24T17:03:50.559Z,6.50
2023-02-24T17:06:21.549Z,6.10
2023-02-24T17:08:50.768Z,5.90
2023-02-24T17:11:19.717Z,5.80
2023-02-24T17:13:48.063Z,6.20
2023-02-24T17:16:19.825Z,6.00
2023-02-24T17:18:48.796Z,6.10
2023-02-24T17:21:18.089Z,5.90
2023-02-24T17:23:46.206Z,5.60
2023-02-24T17:26:15.392Z,6.00
2023-02-24T17:28:43.769Z,5.90
2023-02-24T17:31:12.738Z,6.50
2023-02-24T17:33:41.646Z,6.00
2023-02-24T17:36:09.860Z,6.20
2023-02-24T17:38:38.140Z,5.50
2023-02-24T17:41:06.261Z,6.00
2023-02-24T17:43:34.420Z,6.00
2023-02-24T17:46:07.315Z,5.70
2023-02-24T17:48:36.481Z,6.60
2023-02-24T17:51:19.317Z,5.70
2023-02-24T17:53:47.536Z,6.10
2023-02-24T17:56:15.739Z,6.70
2023-02-24T17:58:44.249Z,5.90
2023-02-24T18:01:12.276Z,6.20
2023-02-24T18:03:43.208Z,5.40
2023-02-24T18:06:12.062Z,5.70
2023-02-24T18:08:41.037Z,5.60
2023-02-24T18:11:10.241Z,5.70
2023-02-24T18:13:39.797Z,5.70
2023-02-24T18:16:14.935Z,6.20
2023-02-24T18:18:43.052Z,5.80
2023-02-24T18:21:10.974Z,5.80
2023-02-24T18:23:40.535Z,5.80
2023-02-24T18:26:11.414Z,6.20
2023-02-24T18:28:39.345Z,5.70
2023-02-24T18:31:12.281Z,5.50
2023-02-24T18:33:41.151Z,5.90
2023-02-24T18:36:10.048Z,5.70
2023-02-24T18:38:39.106Z,5.50
2023-02-24T18:41:08.946Z,5.60
2023-02-24T18:43:37.138Z,5.60
2023-02-24T18:46:06.838Z,5.40
2023-02-24T18:48:35.173Z,6.00
2023-02-24T18:51:03.708Z,5.50
2023-02-24T18:53:38.185Z,5.00
2023-02-24T18:56:18.457Z,5.10
2023-02-24T18:58:52.805Z,5.70
2023-02-24T19:01:23.731Z,5.20
2023-02-24T19:03:52.356Z,5.60
2023-02-24T19:06:21.651Z,5.80
2023-02-24T19:08:54.307Z,5.60
2023-02-24T19:11:27.442Z,5.70
2023-02-24T19:13:56.003Z,5.90
2023-02-24T19:16:24.254Z,5.50
2023-02-24T19:18:54.018Z,5.70
2023-02-24T19:21:22.247Z,5.90
2023-02-24T19:23:50.502Z,6.20
2023-02-24T19:26:23.509Z,5.50
2023-02-24T19:28:51.632Z,5.80
2023-02-24T19:31:21.929Z,5.70
2023-02-24T19:33:53.976Z,5.80
2023-02-24T19:36:22.577Z,5.60
2023-02-24T19:38:51.161Z,6.00
2023-02-24T19:41:19.318Z,5.50
2023-02-24T19:43:47.747Z,5.90
2023-02-24T19:46:16.445Z,5.50
2023-02-24T19:48:45.979Z,6.30
2023-02-24T19:51:18.792Z,5.60
2023-02-24T19:53:47.296Z,5.60
2023-02-24T19:56:16.683Z,5.30
2023-02-24T19:58:45.307Z,5.70
2023-02-24T20:01:14.016Z,5.40
2023-02-24T20:03:42.603Z,5.80
2023-02-24T20:06:21.754Z,5.40
2023-02-24T20:08:50.653Z,5.60
2023-02-24T20:11:18.840Z,5.70
2023-02-24T20:13:47.309Z,5.90
2023-02-24T20:16:17.891Z,5.50
2023-02-24T20:18:47.376Z,5.60
2023-02-24T20:21:15.280Z,5.50
2023-02-24T20:23:43.621Z,5.80
2023-02-24T20:26:14.074Z,5.50
2023-02-24T20:28:46.651Z,5.60
2023-02-24T20:31:18.647Z,5.70
2023-02-24T20:33:47.931Z,5.60
2023-02-24T20:36:20.432Z,5.20
2023-02-24T20:38:48.904Z,5.70
2023-02-24T20:41:17.611Z,5.40
2023-02-24T20:43:47.498Z,5.40
2023-02-24T20:46:24.432Z,5.20
2023-02-24T20:48:55.130Z,5.40
2023-02-24T20:51:23.829Z,6.00
2023-02-24T20:53:57.750Z,5.50
2023-02-24T20:56:28.448Z,5.70
2023-02-24T20:59:00.114Z,5.50
2023-02-24T21:01:29.180Z,5.20
2023-02-24T21:03:59.828Z,5.60
2023-02-24T21:06:30.168Z,5.40
2023-02-24T21:08:58.310Z,5.50
2023-02-24T21:11:26.594Z,5.30
2023-02-24T21:13:55.058Z,5.20
2023-02-24T21:16:27.437Z,5.30
2023-02-24T21:18:58.013Z,5.50
2023-02-24T21:21:26.239Z,5.60
2023-02-24T21:23:56.787Z,5.10
2023-02-24T21:26:27.223Z,5.40
2023-02-24T21:28:57.836Z,5.40
2023-02-24T21:31:26.463Z,5.20
2023-02-24T21:33:55.459Z,5.40
2023-02-24T21:36:26.190Z,4.70
2023-02-24T21:38:54.893Z,5.50
2023-02-24T21:41:23.855Z,5.40
2023-02-24T21:43:55.056Z,5.30
2023-02-24T21:46:28.767Z,5.10
2023-02-24T21:48:57.873Z,6.00
2023-02-24T21:51:26.747Z,5.10
2023-02-24T21:53:56.053Z,5.20
2023-02-24T21:56:26.056Z,5.30
2023-02-24T21:59:03.373Z,5.10
2023-02-24T22:01:39.624Z,5.40
2023-02-24T22:04:10.698Z,4.80
2023-02-24T22:06:41.844Z,5.40
2023-02-24T22:09:12.433Z,5.50
2023-02-24T22:11:41.883Z,5.30
2023-02-24T22:14:10.936Z,5.10
2023-02-24T22:16:40.111Z,5.40
2023-02-24T22:19:08.313Z,5.20
2023-02-24T22:21:39.760Z,5.20
2023-02-24T22:24:10.830Z,5.10
2023-02-24T22:26:40.173Z,5.10
2023-02-24T22:29:08.816Z,4.90
2023-02-24T22:31:39.163Z,5.00
2023-02-24T22:34:08.778Z,5.10
2023-02-24T22:36:37.322Z,4.90
2023-02-24T22:39:09.434Z,4.90
2023-02-24T22:41:37.553Z,4.90
2023-02-24T22:44:05.836Z,5.10
2023-02-24T22:46:35.852Z,4.70
2023-02-24T22:49:05.489Z,4.90
2023-02-24T22:51:33.687Z,4.90
2023-02-24T22:54:01.691Z,5.10
2023-02-24T22:56:30.055Z,4.70
2023-02-24T22:58:58.437Z,5.10
2023-02-24T23:01:29.239Z,4.80
2023-02-24T23:04:00.321Z,4.90
2023-02-24T23:06:29.564Z,4.90
2023-02-24T23:08:58.680Z,5.30
2023-02-24T23:11:41.977Z,4.80
2023-02-24T23:14:13.890Z,4.80
2023-02-24T23:16:42.824Z,4.60
2023-02-24T23:19:16.938Z,4.90
2023-02-24T23:21:46.799Z,5.20
2023-02-24T23:24:16.855Z,5.10
2023-02-24T23:26:46.821Z,5.00
2023-02-24T23:29:17.325Z,4.50
2023-02-24T23:31:45.989Z,4.70
2023-02-24T23:34:14.574Z,4.80
2023-02-24T23:36:43.863Z,5.10
2023-02-24T23:39:23.194Z,5.00
2023-02-24T23:41:56.948Z,4.80
2023-02-24T23:44:25.516Z,4.50
2023-02-24T23:46:53.678Z,4.70
2023-02-24T23:49:24.144Z,5.20
2023-02-24T23:51:52.028Z,4.90
2023-02-24T23:54:20.471Z,5.10
2023-02-24T23:56:48.461Z,4.70
2023-02-24T23:59:21.623Z,4.90
